Time;durP1;ratioP1;P1;durP2;ratioP2;P2;SDS_P1;SDS_P2;PMS_P1;PMS_P2;Temp;Humidity;BMP_temperature;BMP_pressure;BME280_temperature;BME280_humidity;BME280_pressure;Samples;Min_cycle;Max_cycle;Signal;HPM_P1;HPM_P2
2023/04/15 00:00:45;;;;;;;14.07;5.43;;;7.40;99.90;;;;;;5094740;28;20471;-74
2023/04/15 00:03:11;;;;;;;7.25;5.05;;;7.20;99.90;;;;;;5097415;28;20044;-74
2023/04/15 00:05:37;;;;;;;9.45;5.72;;;7.20;99.90;;;;;;5097423;28;20047;-74
2023/04/15 00:08:03;;;;;;;10.30;5.47;;;7.20;99.90;;;;;;5097319;28;20048;-74
2023/04/15 00:10:28;;;;;;;11.45;6.20;;;7.20;99.90;;;;;;5097233;28;20058;-74
2023/04/15 00:12:54;;;;;;;12.02;5.90;;;7.10;99.90;;;;;;5097291;28;20040;-74
2023/04/15 00:15:19;;;;;;;10.68;5.82;;;7.00;99.90;;;;;;5095728;28;20044;-74
2023/04/15 00:17:45;;;;;;;13.20;5.97;;;7.00;99.90;;;;;;5097114;28;20092;-74
2023/04/15 00:20:11;;;;;;;10.83;5.57;;;7.00;99.90;;;;;;5097109;28;20403;-74
2023/04/15 00:22:37;;;;;;;9.43;5.78;;;6.90;99.90;;;;;;5096025;28;20051;-74
2023/04/15 00:25:03;;;;;;;12.05;6.03;;;6.90;99.90;;;;;;5096988;28;20047;-74
2023/04/15 00:27:29;;;;;;;11.80;5.88;;;6.90;99.90;;;;;;5097002;28;20044;-74
2023/04/15 00:29:55;;;;;;;9.83;5.47;;;6.80;99.90;;;;;;5096843;28;20400;-74
2023/04/15 00:32:20;;;;;;;11.38;5.95;;;6.80;99.90;;;;;;5096798;28;20044;-74
2023/04/15 00:34:46;;;;;;;9.77;5.80;;;6.80;99.90;;;;;;5096822;28;20044;-74
2023/04/15 00:37:12;;;;;;;10.25;5.82;;;6.80;99.90;;;;;;5096740;28;20418;-74
2023/04/15 00:39:38;;;;;;;11.77;6.30;;;6.70;99.90;;;;;;5096888;28;20427;-74
2023/04/15 00:42:04;;;;;;;13.43;6.40;;;6.70;99.90;;;;;;5096758;28;20139;-74
2023/04/15 00:44:31;;;;;;;10.35;6.93;;;6.90;99.90;;;;;;5096521;28;20048;-74
2023/04/15 00:46:57;;;;;;;14.40;7.32;;;6.60;99.90;;;;;;5096497;28;20048;-74
2023/04/15 00:49:23;;;;;;;11.18;6.63;;;6.60;99.90;;;;;;5096753;28;20048;-74
2023/04/15 00:51:49;;;;;;;11.50;7.20;;;6.70;99.90;;;;;;5096421;28;20085;-74
2023/04/15 00:54:15;;;;;;;11.68;7.05;;;6.70;99.90;;;;;;5096465;28;20461;-74
2023/04/15 00:56:41;;;;;;;9.70;6.78;;;6.70;99.90;;;;;;5096414;28;20460;-74
2023/04/15 00:59:07;;;;;;;10.90;7.05;;;6.70;99.90;;;;;;5096300;28;20075;-74
2023/04/15 01:01:37;;;;;;;11.65;6.97;;;7.40;99.90;;;;;;5096364;28;20110;-74
2023/04/15 01:04:03;;;;;;;9.80;6.60;;;6.70;99.90;;;;;;5094979;28;20044;-74
2023/04/15 01:06:31;;;;;;;9.73;6.50;;;6.70;99.90;;;;;;5096242;28;20044;-74
2023/04/15 01:08:57;;;;;;;8.07;6.30;;;6.70;99.90;;;;;;5096152;28;20036;-74
2023/04/15 01:11:24;;;;;;;9.13;6.00;;;6.70;99.90;;;;;;5095048;28;20044;-74
2023/04/15 01:13:54;;;;;;;12.18;6.28;;;6.70;99.90;;;;;;5094873;28;20079;-74
2023/04/15 01:16:20;;;;;;;9.93;6.68;;;6.70;99.90;;;;;;5096038;28;20412;-74
2023/04/15 01:18:45;;;;;;;11.90;6.47;;;6.60;99.90;;;;;;5095997;28;20115;-74
2023/04/15 01:21:12;;;;;;;14.05;6.82;;;6.60;99.90;;;;;;5096027;28;20055;-74
2023/04/15 01:23:38;;;;;;;11.30;7.10;;;6.60;99.90;;;;;;5095860;28;20124;-74
2023/04/15 01:26:05;;;;;;;11.50;6.90;;;6.60;99.90;;;;;;5094714;28;20089;-74
2023/04/15 01:28:31;;;;;;;7.45;6.25;;;6.50;99.90;;;;;;5095736;28;20399;-74
2023/04/15 01:31:13;;;;;;;11.68;6.85;;;6.50;99.90;;;;;;5094906;28;20040;-74
2023/04/15 01:33:41;;;;;;;10.55;7.00;;;6.40;99.90;;;;;;5095715;28;20044;-74
2023/04/15 01:36:08;;;;;;;12.10;6.65;;;6.40;99.90;;;;;;5095650;28;20036;-74
2023/04/15 01:38:35;;;;;;;12.48;6.72;;;6.40;99.90;;;;;;5095564;28;20056;-74
2023/04/15 01:41:03;;;;;;;10.15;6.25;;;6.30;99.90;;;;;;5095428;28;20060;-74
2023/04/15 01:43:28;;;;;;;10.27;7.25;;;6.30;99.90;;;;;;5094497;28;20161;-74
2023/04/15 01:45:55;;;;;;;11.90;6.97;;;6.20;99.90;;;;;;5095453;28;20036;-74
2023/04/15 01:48:21;;;;;;;9.38;6.55;;;6.20;99.90;;;;;;5095369;28;20044;-74
2023/04/15 01:50:47;;;;;;;13.13;7.70;;;6.20;99.90;;;;;;5095431;28;20088;-74
2023/04/15 01:53:13;;;;;;;12.07;7.70;;;6.10;99.90;;;;;;5095343;28;20083;-74
2023/04/15 01:55:38;;;;;;;10.88;7.00;;;6.10;99.90;;;;;;5095112;28;20048;-74
2023/04/15 01:58:05;;;;;;;10.85;6.85;;;6.10;99.90;;;;;;5095215;28;20040;-74
2023/04/15 02:00:31;;;;;;;10.70;7.10;;;6.00;99.90;;;;;;5095132;28;20052;-74
2023/04/15 02:02:58;;;;;;;13.98;6.80;;;6.00;99.90;;;;;;5095098;28;20059;-74
2023/04/15 02:05:24;;;;;;;14.43;6.97;;;6.00;99.90;;;;;;5095054;28;20063;-74
2023/04/15 02:07:50;;;;;;;9.23;6.25;;;5.90;99.90;;;;;;5095061;28;20083;-74
2023/04/15 02:10:15;;;;;;;11.88;6.75;;;5.90;99.90;;;;;;5094726;28;20176;-74
2023/04/15 02:12:41;;;;;;;10.88;7.15;;;5.90;99.90;;;;;;5095233;28;20071;-74
2023/04/15 02:15:08;;;;;;;9.52;7.03;;;5.90;99.90;;;;;;5094825;28;20044;-74
2023/04/15 02:17:36;;;;;;;11.45;7.00;;;5.90;99.90;;;;;;5095169;28;20036;-74
2023/04/15 02:20:07;;;;;;;11.38;6.82;;;5.80;99.90;;;;;;5094765;28;20055;-74
2023/04/15 02:22:33;;;;;;;13.52;7.10;;;5.80;99.90;;;;;;5094784;28;20054;-74
2023/04/15 02:24:59;;;;;;;9.97;7.03;;;5.80;99.90;;;;;;5094419;28;20380;-74
2023/04/15 02:27:25;;;;;;;12.25;7.47;;;6.00;99.90;;;;;;5094649;28;20046;-74
2023/04/15 02:29:51;;;;;;;12.55;7.28;;;5.80;99.90;;;;;;5094675;28;20044;-74
2023/04/15 02:32:22;;;;;;;13.10;7.60;;;6.50;99.90;;;;;;5094569;28;20048;-74
2023/04/15 02:34:47;;;;;;;13.90;6.65;;;5.70;99.90;;;;;;5094255;28;20055;-74
2023/04/15 02:37:13;;;;;;;10.35;6.85;;;5.70;99.90;;;;;;5094380;28;20480;-74
2023/04/15 02:39:39;;;;;;;11.30;6.68;;;5.60;99.90;;;;;;5094466;28;20096;-74
2023/04/15 02:42:07;;;;;;;10.43;7.50;;;5.60;99.90;;;;;;5094397;28;20039;-74
2023/04/15 02:44:35;;;;;;;13.43;7.78;;;5.60;99.90;;;;;;5094350;28;20114;-74
2023/04/15 02:47:00;;;;;;;11.02;7.07;;;5.60;99.90;;;;;;5094278;28;20124;-74
2023/04/15 02:49:28;;;;;;;12.25;7.95;;;5.50;99.90;;;;;;5093917;28;20126;-74
2023/04/15 02:51:54;;;;;;;12.00;7.10;;;5.60;99.90;;;;;;5094183;28;20071;-74
2023/04/15 02:54:21;;;;;;;10.43;7.10;;;5.50;99.90;;;;;;5094158;28;20483;-74
2023/04/15 02:56:47;;;;;;;11.75;6.45;;;5.70;99.90;;;;;;5094559;28;20048;-74
2023/04/15 02:59:13;;;;;;;10.93;7.15;;;5.50;99.90;;;;;;5094266;28;20044;-75
2023/04/15 03:01:39;;;;;;;12.43;6.75;;;5.40;99.90;;;;;;5094136;28;20093;-74
2023/04/15 03:04:06;;;;;;;10.13;6.60;;;5.40;99.90;;;;;;5094031;28;20464;-74
2023/04/15 03:06:32;;;;;;;12.50;6.75;;;5.30;99.90;;;;;;5093925;28;20077;-74
2023/04/15 03:08:59;;;;;;;11.30;7.03;;;5.20;99.90;;;;;;5094000;28;20085;-75
2023/04/15 03:11:26;;;;;;;10.55;6.75;;;5.20;99.90;;;;;;5093911;28;20044;-75
2023/04/15 03:13:51;;;;;;;;;;;5.10;99.90;;;;;;5094418;28;20051;-74
2023/04/15 03:16:17;;;;;;;11.80;7.13;;;5.10;99.90;;;;;;5093821;28;19941;-74
2023/04/15 03:18:42;;;;;;;11.00;6.95;;;5.00;99.90;;;;;;5092608;28;20069;-74
2023/04/15 03:21:08;;;;;;;13.00;7.40;;;5.00;99.90;;;;;;5093599;28;20047;-74
2023/04/15 03:23:33;;;;;;;14.25;7.88;;;4.90;99.90;;;;;;5093553;28;20043;-74
2023/04/15 03:26:03;;;;;;;12.85;7.57;;;4.90;99.90;;;;;;5094249;28;20056;-74
2023/04/15 03:28:29;;;;;;;11.35;7.13;;;4.80;99.90;;;;;;5093771;28;20061;-74
2023/04/15 03:30:55;;;;;;;11.75;6.90;;;4.80;99.90;;;;;;5093741;28;20092;-74
2023/04/15 03:33:21;;;;;;;11.73;7.93;;;4.80;99.90;;;;;;5093453;28;20483;-74
2023/04/15 03:35:46;;;;;;;12.77;7.95;;;4.70;99.90;;;;;;5094483;28;20055;-74
2023/04/15 03:38:12;;;;;;;11.52;7.03;;;4.70;99.90;;;;;;5097624;28;20048;-74
2023/04/15 03:40:40;;;;;;;10.82;7.28;;;4.60;99.90;;;;;;5097824;28;20040;-74
2023/04/15 03:43:05;;;;;;;12.93;7.88;;;4.60;99.90;;;;;;5097769;28;20051;-74
2023/04/15 03:45:31;;;;;;;12.88;7.95;;;4.60;99.90;;;;;;5097778;28;20040;-74
2023/04/15 03:47:57;;;;;;;11.90;7.53;;;4.60;99.90;;;;;;5097765;28;20401;-74
2023/04/15 03:50:22;;;;;;;13.93;7.78;;;4.60;99.90;;;;;;5097386;28;20048;-74
2023/04/15 03:52:48;;;;;;;11.88;7.60;;;4.50;99.90;;;;;;5097246;28;20044;-74
2023/04/15 03:55:14;;;;;;;12.20;7.20;;;4.50;99.90;;;;;;5097651;28;20036;-74
2023/04/15 03:57:40;;;;;;;16.07;8.57;;;4.50;99.90;;;;;;5098047;28;20095;-74
2023/04/15 04:00:08;;;;;;;13.48;8.07;;;4.40;99.90;;;;;;5097455;28;20504;-74
2023/04/15 04:02:33;;;;;;;13.57;7.63;;;4.40;99.90;;;;;;5097370;28;20044;-74
2023/04/15 04:04:59;;;;;;;13.75;8.90;;;4.40;99.90;;;;;;5097407;28;20044;-75
2023/04/15 04:07:25;;;;;;;13.30;8.35;;;4.40;99.90;;;;;;5097402;28;20036;-74
2023/04/15 04:09:50;;;;;;;16.45;7.78;;;4.30;99.90;;;;;;5097352;28;20040;-74
2023/04/15 04:12:16;;;;;;;14.05;8.20;;;4.30;99.90;;;;;;5095918;28;20193;-74
2023/04/15 04:14:42;;;;;;;13.85;7.93;;;4.30;99.90;;;;;;5097175;28;20047;-74
2023/04/15 04:17:07;;;;;;;16.05;7.88;;;4.20;99.90;;;;;;5097189;28;20047;-74
2023/04/15 04:19:33;;;;;;;15.00;7.60;;;4.20;99.90;;;;;;5096611;28;20048;-74
2023/04/15 04:21:59;;;;;;;11.95;7.70;;;4.20;99.90;;;;;;5097024;28;20036;-74
2023/04/15 04:24:25;;;;;;;13.38;7.90;;;4.70;99.90;;;;;;5097108;28;20594;-75
2023/04/15 04:26:50;;;;;;;16.08;8.10;;;4.10;99.90;;;;;;5079223;28;20044;-74
2023/04/15 04:29:16;;;;;;;13.05;7.32;;;4.10;99.90;;;;;;5096888;28;20400;-74
2023/04/15 04:31:42;;;;;;;15.65;8.30;;;4.00;99.90;;;;;;5096813;28;20388;-74
2023/04/15 04:34:07;;;;;;;13.75;8.48;;;4.60;99.90;;;;;;5097168;28;20040;-74
2023/04/15 04:36:33;;;;;;;13.82;7.85;;;4.00;99.90;;;;;;5096713;28;20040;-74
2023/04/15 04:39:00;;;;;;;13.18;7.47;;;4.00;99.90;;;;;;5096547;28;20552;-74
2023/04/15 04:41:26;;;;;;;13.98;7.82;;;3.90;99.90;;;;;;5096615;28;20040;-74
2023/04/15 04:43:51;;;;;;;13.93;7.97;;;3.90;99.90;;;;;;5096709;28;20119;-74
2023/04/15 04:46:17;;;;;;;15.95;7.95;;;3.90;99.90;;;;;;5096268;28;20109;-74
2023/04/15 04:48:42;;;;;;;12.50;8.02;;;3.90;99.90;;;;;;5096518;28;20135;-74
2023/04/15 04:51:08;;;;;;;12.77;7.90;;;3.90;99.90;;;;;;5096725;28;20083;-75
2023/04/15 04:53:34;;;;;;;14.63;7.93;;;3.90;99.90;;;;;;5096651;28;20052;-75
2023/04/15 04:56:00;;;;;;;13.73;8.25;;;3.90;99.90;;;;;;5096466;28;20055;-75
2023/04/15 04:58:26;;;;;;;14.68;8.57;;;3.90;99.90;;;;;;5096361;28;20048;-75
2023/04/15 05:00:51;;;;;;;16.45;8.07;;;3.90;99.90;;;;;;5096416;28;20036;-75
2023/04/15 05:03:17;;;;;;;14.20;8.02;;;3.90;99.90;;;;;;5096364;28;20044;-75
2023/04/15 05:05:43;;;;;;;15.13;8.63;;;3.90;99.90;;;;;;5096252;28;20052;-75
2023/04/15 05:08:08;;;;;;;14.68;8.95;;;3.90;99.90;;;;;;5096697;28;20051;-75
2023/04/15 05:10:35;;;;;;;14.20;8.88;;;3.90;99.90;;;;;;5096219;28;20104;-75
2023/04/15 05:13:00;;;;;;;17.88;9.40;;;3.90;99.90;;;;;;5096001;28;20048;-75
2023/04/15 05:15:26;;;;;;;15.15;8.77;;;3.90;99.90;;;;;;5096629;28;20050;-75
2023/04/15 05:17:51;;;;;;;18.23;9.30;;;3.90;99.90;;;;;;5095840;28;20036;-75
2023/04/15 05:20:17;;;;;;;15.65;8.90;;;4.50;99.90;;;;;;5095962;28;20044;-74
2023/04/15 05:22:42;;;;;;;14.07;8.95;;;4.30;99.90;;;;;;5095945;28;20556;-75
2023/04/15 05:25:08;;;;;;;16.13;9.07;;;4.00;99.90;;;;;;5095870;28;20082;-75
2023/04/15 05:27:34;;;;;;;17.30;9.60;;;4.10;99.90;;;;;;5095893;28;20044;-75
2023/04/15 05:30:00;;;;;;;17.03;9.10;;;4.10;99.90;;;;;;5095774;28;20048;-75
2023/04/15 05:32:26;;;;;;;15.93;9.20;;;4.20;99.90;;;;;;5095647;28;20086;-78
2023/04/15 05:34:51;;;;;;;14.95;9.00;;;4.20;99.90;;;;;;5095746;28;20046;-77
2023/04/15 05:37:19;;;;;;;15.48;8.93;;;4.20;99.90;;;;;;5095326;28;20064;-75
2023/04/15 05:39:45;;;;;;;15.25;9.15;;;4.30;99.90;;;;;;5095540;28;20048;-75
2023/04/15 05:42:11;;;;;;;16.63;9.63;;;4.30;99.90;;;;;;5095531;28;20042;-75
2023/04/15 05:44:36;;;;;;;14.30;9.15;;;4.40;99.90;;;;;;5095698;28;20040;-75
2023/04/15 05:47:02;;;;;;;15.98;9.52;;;4.50;99.90;;;;;;5095457;28;20048;-75
2023/04/15 05:49:28;;;;;;;14.95;9.60;;;4.50;99.90;;;;;;5095177;28;20048;-75
2023/04/15 05:51:54;;;;;;;18.70;10.13;;;4.50;99.90;;;;;;5095022;28;20507;-75
2023/04/15 05:54:22;;;;;;;16.02;9.38;;;4.60;99.90;;;;;;5095145;28;20286;-74
2023/04/15 05:56:47;;;;;;;15.82;9.32;;;4.70;99.90;;;;;;5095229;28;20052;-74
2023/04/15 05:59:13;;;;;;;19.27;10.20;;;4.80;99.90;;;;;;5094901;28;20040;-75
2023/04/15 06:01:39;;;;;;;17.75;9.10;;;4.90;99.90;;;;;;5095120;28;20040;-74
2023/04/15 06:04:05;;;;;;;17.33;9.82;;;4.90;99.90;;;;;;5095091;28;20545;-75
2023/04/15 06:06:34;;;;;;;15.40;9.00;;;5.00;99.90;;;;;;5095049;28;20399;-75
2023/04/15 06:08:59;;;;;;;18.60;10.02;;;5.10;99.90;;;;;;5095019;28;20048;-75
2023/04/15 06:11:26;;;;;;;19.50;9.50;;;5.20;99.90;;;;;;5094910;28;20073;-75
2023/04/15 06:13:51;;;;;;;17.17;9.73;;;5.30;99.90;;;;;;5094914;28;20131;-75
2023/04/15 06:16:17;;;;;;;16.30;9.93;;;6.30;99.90;;;;;;5095056;28;20086;-85
2023/04/15 06:18:43;;;;;;;16.75;8.80;;;5.60;99.90;;;;;;5093605;28;20040;-81
2023/04/15 06:21:09;;;;;;;19.80;11.18;;;5.70;99.90;;;;;;5093516;28;20097;-80
2023/04/15 06:23:35;;;;;;;17.25;9.75;;;5.80;99.90;;;;;;5094024;28;20043;-80
2023/04/15 06:26:01;;;;;;;19.08;11.00;;;5.90;99.90;;;;;;5093494;28;20502;-81
2023/04/15 06:28:27;;;;;;;20.33;10.87;;;6.70;99.90;;;;;;5093788;28;20032;-78
2023/04/15 06:30:53;;;;;;;18.30;10.52;;;6.30;99.90;;;;;;5094782;28;20335;-74
2023/04/15 06:33:19;;;;;;;14.98;9.30;;;6.30;99.90;;;;;;5092576;28;20039;-74
2023/04/15 06:35:45;;;;;;;15.45;9.65;;;6.30;99.90;;;;;;5092648;28;20538;-77
2023/04/15 06:38:10;;;;;;;15.70;9.10;;;6.40;99.90;;;;;;5094420;28;20102;-76
2023/04/15 06:40:36;;;;;;;14.93;9.40;;;6.50;99.90;;;;;;5092951;28;20084;-76
2023/04/15 06:43:03;;;;;;;16.30;9.80;;;6.50;99.90;;;;;;5093769;28;20039;-75
2023/04/15 06:45:30;;;;;;;16.90;9.48;;;7.20;99.90;;;;;;5094193;28;20048;-75
2023/04/15 06:47:55;;;;;;;17.95;10.02;;;6.70;99.90;;;;;;5093885;28;20081;-76
2023/04/15 06:50:21;;;;;;;15.98;9.63;;;6.70;99.90;;;;;;5093668;28;20131;-75
2023/04/15 06:52:47;;;;;;;15.27;9.23;;;6.80;99.90;;;;;;5093808;28;20156;-77
2023/04/15 06:55:13;;;;;;;14.60;9.50;;;6.90;99.90;;;;;;5092965;28;20123;-75
2023/04/15 06:57:39;;;;;;;16.08;8.40;;;7.50;99.90;;;;;;5093817;28;20094;-75
2023/04/15 07:00:06;;;;;;;16.48;9.57;;;7.00;99.90;;;;;;5094006;28;20036;-76
2023/04/15 07:02:32;;;;;;;15.32;9.45;;;6.90;99.90;;;;;;5093864;28;20043;-76
2023/04/15 07:04:57;;;;;;;16.27;9.10;;;6.90;99.90;;;;;;5093152;28;20475;-76
2023/04/15 07:07:24;;;;;;;13.48;8.93;;;7.00;99.90;;;;;;5092997;28;20472;-77
2023/04/15 07:09:51;;;;;;;16.13;9.38;;;7.00;99.90;;;;;;5093509;28;20040;-77
2023/04/15 07:12:16;;;;;;;15.32;9.40;;;7.00;99.90;;;;;;5093305;28;20138;-75
2023/04/15 07:14:42;;;;;;;15.90;9.20;;;7.00;99.90;;;;;;5093676;28;20048;-75
2023/04/15 07:17:08;;;;;;;17.08;8.70;;;7.10;99.90;;;;;;5093499;28;20036;-78
2023/04/15 07:19:34;;;;;;;13.93;8.00;;;7.20;99.90;;;;;;5093194;28;20048;-78
2023/04/15 07:22:00;;;;;;;13.50;8.73;;;7.20;99.90;;;;;;5093667;28;20043;-76
2023/04/15 07:24:26;;;;;;;12.82;7.07;;;7.30;99.90;;;;;;5092704;28;20050;-81
2023/04/15 07:26:57;;;;;;;16.45;7.07;;;8.00;99.90;;;;;;5093079;28;20036;-78
2023/04/15 07:29:23;;;;;;;11.00;7.38;;;7.50;99.90;;;;;;5093096;28;20051;-80
2023/04/15 07:31:49;;;;;;;13.85;7.43;;;7.60;99.90;;;;;;5093708;28;20036;-76
2023/04/15 07:34:15;;;;;;;9.95;6.88;;;7.70;99.90;;;;;;5092333;28;20048;-82
2023/04/15 07:36:41;;;;;;;10.80;6.70;;;7.80;99.90;;;;;;5092008;28;20403;-76
2023/04/15 07:39:07;;;;;;;9.95;5.70;;;7.90;99.90;;;;;;5093671;28;20044;-76
2023/04/15 07:41:33;;;;;;;10.18;6.50;;;8.00;99.90;;;;;;5093838;28;20364;-75
2023/04/15 07:43:58;;;;;;;8.60;5.80;;;8.00;99.90;;;;;;5093291;28;20044;-76
2023/04/15 07:46:26;;;;;;;9.52;5.72;;;8.10;99.90;;;;;;5092456;28;20503;-74
2023/04/15 07:48:52;;;;;;;9.65;5.75;;;8.30;99.90;;;;;;5093627;28;20090;-77
2023/04/15 07:51:18;;;;;;;10.75;5.78;;;8.20;99.90;;;;;;5094293;28;20064;-77
2023/04/15 07:53:44;;;;;;;8.55;5.28;;;8.30;99.90;;;;;;5093541;28;20095;-76
2023/04/15 07:56:10;;;;;;;7.45;4.90;;;8.30;99.90;;;;;;5090925;28;20110;-76
2023/04/15 07:58:36;;;;;;;11.88;5.22;;;8.40;99.90;;;;;;5091686;28;20084;-77
2023/04/15 08:01:03;;;;;;;8.30;5.05;;;9.10;99.90;;;;;;5092574;28;20089;-76
2023/04/15 08:03:28;;;;;;;9.80;5.40;;;8.60;99.90;;;;;;5092172;28;20385;-76
2023/04/15 08:05:54;;;;;;;8.88;4.78;;;8.60;99.90;;;;;;5092449;28;20058;-76
2023/04/15 08:08:20;;;;;;;10.75;5.35;;;8.70;99.90;;;;;;5092197;28;20044;-76
2023/04/15 08:10:45;;;;;;;10.18;5.63;;;8.80;99.90;;;;;;5093064;28;20080;-75
2023/04/15 08:13:11;;;;;;;7.50;5.15;;;8.90;99.90;;;;;;5093335;28;20084;-76
2023/04/15 08:15:37;;;;;;;7.47;4.65;;;9.10;99.90;;;;;;5093334;28;20048;-76
2023/04/15 08:18:03;;;;;;;10.18;5.20;;;9.00;99.90;;;;;;5093275;28;20127;-76
2023/04/15 08:20:28;;;;;;;10.88;4.80;;;9.10;99.90;;;;;;5093273;28;20182;-76
2023/04/15 08:22:54;;;;;;;8.88;5.43;;;9.30;99.90;;;;;;5095808;28;20067;-75
2023/04/15 08:25:20;;;;;;;9.13;5.30;;;9.10;99.90;;;;;;5097071;28;20048;-77
2023/04/15 08:27:46;;;;;;;8.15;4.78;;;9.10;99.90;;;;;;5096984;28;20048;-76
2023/04/15 08:30:12;;;;;;;6.78;3.88;;;9.70;99.90;;;;;;5096969;28;20048;-76
2023/04/15 08:32:37;;;;;;;6.75;3.60;;;9.30;99.90;;;;;;5096779;28;20495;-75
2023/04/15 08:35:03;;;;;;;6.18;3.58;;;9.40;99.90;;;;;;5096894;28;20101;-76
2023/04/15 08:37:29;;;;;;;5.22;3.63;;;9.40;99.90;;;;;;5097173;28;20039;-76
2023/04/15 08:39:55;;;;;;;6.93;4.15;;;9.50;99.90;;;;;;5097083;28;20541;-76
2023/04/15 08:42:30;;;;;;;5.72;4.15;;;9.60;99.90;;;;;;5096743;28;20093;-76
2023/04/15 08:44:57;;;;;;;6.43;3.45;;;9.70;99.90;;;;;;5096562;28;20048;-76
2023/04/15 08:47:26;;;;;;;4.30;3.00;;;9.70;99.90;;;;;;5096559;28;20491;-77
2023/04/15 08:49:54;;;;;;;7.22;3.65;;;9.80;99.90;;;;;;5096815;28;20052;-77
2023/04/15 08:52:20;;;;;;;6.78;3.60;;;9.80;99.90;;;;;;5096490;28;20048;-76
2023/04/15 08:54:47;;;;;;;5.25;3.35;;;9.70;99.90;;;;;;5096507;28;20051;-76
2023/04/15 08:57:13;;;;;;;4.47;3.25;;;10.20;99.90;;;;;;5095286;28;20403;-77
2023/04/15 08:59:40;;;;;;;5.40;3.47;;;9.70;99.90;;;;;;5096481;28;20055;-77
2023/04/15 09:02:07;;;;;;;7.00;3.30;;;9.70;99.90;;;;;;5096278;28;20044;-77
2023/04/15 09:04:32;;;;;;;5.57;3.10;;;9.70;99.90;;;;;;5096337;28;20059;-76
2023/04/15 09:06:58;;;;;;;4.88;3.40;;;9.60;99.90;;;;;;5096246;28;20044;-75
2023/04/15 09:09:24;;;;;;;4.07;2.38;;;9.50;99.90;;;;;;5095657;28;20055;-76
2023/04/15 09:11:50;;;;;;;9.13;3.13;;;9.50;99.90;;;;;;5096124;28;20502;-76
2023/04/15 09:14:16;;;;;;;5.43;2.80;;;10.10;99.90;;;;;;5096290;28;20063;-77
2023/04/15 09:17:01;;;;;;;4.30;2.97;;;9.60;99.90;;;;;;5096130;28;20040;-76
2023/04/15 09:19:27;;;;;;;5.93;3.35;;;9.60;99.90;;;;;;5095985;28;20125;-76
2023/04/15 09:21:55;;;;;;;7.87;3.47;;;9.60;99.90;;;;;;5095982;28;20050;-76
2023/04/15 09:24:21;;;;;;;7.05;2.90;;;9.60;99.90;;;;;;5096111;28;20043;-76
2023/04/15 09:26:50;;;;;;;5.38;3.28;;;9.60;99.90;;;;;;5095911;28;20044;-76
2023/04/15 09:29:17;;;;;;;5.15;3.03;;;9.70;99.90;;;;;;5095820;28;20044;-76
2023/04/15 09:31:43;;;;;;;7.82;3.00;;;9.70;99.90;;;;;;5095713;28;20125;-76
2023/04/15 09:34:09;;;;;;;8.27;3.35;;;9.60;99.90;;;;;;5094717;28;20079;-76
2023/04/15 09:36:55;;;;;;;5.35;3.25;;;9.70;99.90;;;;;;5095719;28;20047;-76
2023/04/15 09:39:21;;;;;;;5.13;2.90;;;9.60;99.90;;;;;;5095615;28;20050;-77
2023/04/15 09:42:02;;;;;;;4.40;2.65;;;9.60;99.90;;;;;;5095100;28;20044;-74
2023/04/15 09:44:28;;;;;;;4.60;2.83;;;9.70;99.90;;;;;;5094979;28;20047;-77
2023/04/15 09:46:56;;;;;;;4.80;2.88;;;10.10;99.90;;;;;;5094702;28;20036;-85
2023/04/15 09:49:22;;;;;;;4.80;3.15;;;10.00;99.90;;;;;;5100974;28;20131;-76
2023/04/15 09:51:48;;;;;;;7.63;3.17;;;10.10;99.90;;;;;;5094800;28;20165;-78
2023/04/15 09:54:19;;;;;;;3.60;2.65;;;10.20;99.90;;;;;;5093547;28;20373;-77
2023/04/15 09:56:45;;;;;;;5.15;2.45;;;10.20;99.90;;;;;;5093609;28;20040;-83
2023/04/15 09:59:11;;;;;;;3.53;2.67;;;10.00;99.90;;;;;;5094038;28;20546;-76
2023/04/15 10:01:39;;;;;;;4.75;2.83;;;9.90;99.90;;;;;;5094773;28;20492;-83
2023/04/15 10:04:06;;;;;;;6.53;2.92;;;9.80;99.90;;;;;;5095008;28;20044;-86
2023/04/15 10:06:32;;;;;;;5.18;2.65;;;9.90;99.90;;;;;;5075603;28;20134;-82
2023/04/15 10:08:58;;;;;;;3.50;2.70;;;9.90;99.90;;;;;;5093222;28;20520;-81
2023/04/15 10:11:27;;;;;;;4.97;2.47;;;10.00;99.90;;;;;;5094968;28;20032;-86
2023/04/15 10:13:55;;;;;;;4.53;2.95;;;10.00;99.90;;;;;;5094994;28;20040;-79
2023/04/15 10:16:21;;;;;;;5.20;2.50;;;10.60;99.90;;;;;;5095130;28;20051;-77
2023/04/15 10:18:54;;;;;;;6.15;2.40;;;9.80;99.90;;;;;;5093755;28;20051;-77
2023/04/15 10:21:21;;;;;;;4.40;2.55;;;9.70;99.90;;;;;;5094833;28;20092;-78
2023/04/15 10:23:47;;;;;;;6.05;2.67;;;9.70;99.90;;;;;;5095189;28;20135;-76
2023/04/15 10:26:14;;;;;;;5.63;2.20;;;9.70;99.90;;;;;;5095120;28;20118;-77
2023/04/15 10:28:40;;;;;;;2.92;2.03;;;9.70;99.90;;;;;;5094659;28;20044;-77
2023/04/15 10:31:07;;;;;;;4.85;2.63;;;9.70;99.90;;;;;;5094713;28;20117;-76
2023/04/15 10:33:33;;;;;;;4.68;2.28;;;9.70;99.90;;;;;;5094678;28;20044;-78
2023/04/15 10:36:00;;;;;;;6.25;2.22;;;9.80;99.90;;;;;;5094501;28;20051;-79
2023/04/15 10:38:43;;;;;;;4.28;2.20;;;9.70;99.90;;;;;;5094925;28;20119;-77
2023/04/15 10:41:33;;;;;;;4.53;2.30;;;9.80;99.90;;;;;;5094480;28;20047;-76
2023/04/15 10:44:00;;;;;;;5.22;2.40;;;9.90;99.90;;;;;;5093354;28;20047;-77
2023/04/15 10:46:44;;;;;;;5.82;2.10;;;9.80;99.90;;;;;;5094274;28;20047;-79
2023/04/15 10:49:24;;;;;;;4.20;2.47;;;10.20;99.90;;;;;;5094264;28;20052;-78
2023/04/15 10:51:57;;;;;;;5.13;2.40;;;9.80;99.90;;;;;;5093606;28;20496;-77
2023/04/15 10:54:25;;;;;;;3.67;2.53;;;9.80;99.90;;;;;;5094185;28;20048;-78
2023/04/15 10:57:05;;;;;;;3.10;2.20;;;9.80;99.90;;;;;;5094206;28;20104;-78
2023/04/15 10:59:32;;;;;;;3.20;2.28;;;9.80;99.90;;;;;;5094078;28;20051;-78
2023/04/15 11:02:01;;;;;;;;;;;9.80;99.90;;;;;;5094514;28;20048;-77
2023/04/15 11:04:58;;;;;;;4.18;2.70;;;9.70;99.90;;;;;;5094078;28;19920;-77
2023/04/15 11:07:52;;;;;;;6.63;2.92;;;9.70;99.90;;;;;;5093905;28;20483;-77
2023/04/15 11:10:30;;;;;;;7.40;2.63;;;9.60;99.90;;;;;;5094126;28;20040;-77
2023/04/15 11:13:02;;;;;;;6.20;2.60;;;9.60;99.90;;;;;;5093130;28;20052;-77
2023/04/15 11:15:43;;;;;;;2.45;2.10;;;9.70;99.90;;;;;;5092797;28;20480;-79
2023/04/15 11:18:10;;;;;;;6.20;2.53;;;9.60;99.90;;;;;;5094467;28;20523;-77
2023/04/15 11:20:37;;;;;;;;;;;9.70;99.90;;;;;;5094335;28;20080;-78
2023/04/15 11:23:04;;;;;;;5.10;2.55;;;10.20;99.90;;;;;;5093939;28;20338;-77
2023/04/15 11:25:36;;;;;;;3.45;2.10;;;9.80;99.90;;;;;;5092717;28;20048;-77
2023/04/15 11:28:01;;;;;;;3.53;2.30;;;9.80;99.90;;;;;;5093905;28;20040;-78
2023/04/15 11:30:31;;;;;;;3.88;2.40;;;9.70;99.90;;;;;;5093704;28;20040;-78
2023/04/15 11:33:02;;;;;;;3.42;1.88;;;9.80;99.90;;;;;;5093630;28;20051;-77
2023/04/15 11:35:28;;;;;;;3.75;2.28;;;9.80;99.90;;;;;;5093931;28;20069;-78
2023/04/15 11:37:54;;;;;;;4.67;2.03;;;9.70;99.90;;;;;;5093593;28;20404;-77
2023/04/15 11:40:28;;;;;;;5.75;2.22;;;9.80;99.90;;;;;;5093724;28;20048;-77
2023/04/15 11:43:14;;;;;;;2.72;1.88;;;10.20;99.90;;;;;;5093435;28;20508;-77
2023/04/15 11:45:55;;;;;;;3.10;2.00;;;9.90;99.90;;;;;;5093642;28;20475;-77
2023/04/15 11:48:32;;;;;;;3.60;2.20;;;9.90;99.90;;;;;;5093628;28;20048;-78
2023/04/15 11:51:00;;;;;;;6.05;2.47;;;9.90;99.90;;;;;;5093539;28;20051;-78
2023/04/15 11:53:36;;;;;;;4.38;2.30;;;10.10;99.90;;;;;;5093295;28;20122;-77
2023/04/15 11:56:01;;;;;;;4.22;2.20;;;9.90;99.90;;;;;;5093976;28;20055;-78
2023/04/15 11:58:28;;;;;;;3.13;1.92;;;10.00;99.90;;;;;;5097193;28;20040;-78
2023/04/15 12:00:59;;;;;;;3.20;2.20;;;9.90;99.90;;;;;;5097586;28;20090;-78
2023/04/15 12:03:26;;;;;;;4.85;2.30;;;10.10;99.90;;;;;;5097993;28;20056;-78
2023/04/15 12:06:20;;;;;;;4.03;2.35;;;10.20;99.90;;;;;;5097375;28;20040;-78
2023/04/15 12:08:51;;;;;;;4.00;2.10;;;10.20;99.90;;;;;;5097438;28;20098;-78
2023/04/15 12:11:20;;;;;;;5.25;2.33;;;10.10;99.90;;;;;;5097300;28;20047;-77
2023/04/15 12:13:48;;;;;;;3.25;2.33;;;10.10;99.90;;;;;;5097165;28;20062;-77
2023/04/15 12:16:18;;;;;;;7.15;2.00;;;10.20;99.90;;;;;;5097251;28;20047;-79
2023/04/15 12:18:50;;;;;;;5.70;2.67;;;10.10;99.90;;;;;;5097178;28;20044;-79
2023/04/15 12:21:18;;;;;;;3.25;1.80;;;10.00;99.90;;;;;;5097736;28;20052;-77
2023/04/15 12:23:51;;;;;;;3.40;1.70;;;10.00;99.90;;;;;;5097923;28;20089;-78
2023/04/15 12:26:24;;;;;;;3.40;1.60;;;10.00;99.90;;;;;;5097197;28;20093;-78
2023/04/15 12:29:06;;;;;;;4.50;2.10;;;10.10;99.90;;;;;;5096109;28;20051;-77
2023/04/15 12:31:33;;;;;;;6.80;2.28;;;10.10;99.90;;;;;;5096909;28;20047;-79
2023/04/15 12:34:00;;;;;;;4.72;2.20;;;10.00;99.90;;;;;;5096987;28;20368;-79
2023/04/15 12:36:26;;;;;;;5.18;2.40;;;9.70;99.90;;;;;;5097174;28;20051;-78
2023/04/15 12:38:52;;;;;;;6.00;2.25;;;9.80;99.90;;;;;;5096861;28;20044;-78
2023/04/15 12:41:19;;;;;;;7.40;2.17;;;9.70;99.90;;;;;;5096864;28;20044;-77
2023/04/15 12:43:45;;;;;;;6.53;2.20;;;9.60;99.90;;;;;;5096744;28;20047;-77
2023/04/15 12:46:14;;;;;;;2.95;2.00;;;9.60;99.90;;;;;;5096675;28;20059;-78
2023/04/15 12:48:40;;;;;;;6.22;2.53;;;9.60;99.90;;;;;;5096646;28;20135;-78
2023/04/15 12:51:06;;;;;;;4.35;1.90;;;9.50;99.90;;;;;;5096012;28;20122;-76